Time;durP1;ratioP1;P1;durP2;ratioP2;P2;SDS_P1;SDS_P2;PMS_P1;PMS_P2;Temp;Humidity;BMP_temperature;BMP_pressure;BME280_temperature;BME280_humidity;BME280_pressure;Samples;Min_cycle;Max_cycle;Signal;HPM_P1;HPM_P2
2022/12/03 00:00:00;;;;;;;17.13;9.23;;;3.50;99.90;;;;;;5024091;28;20208;-64
2022/12/03 00:02:28;;;;;;;17.47;9.33;;;3.50;99.90;;;;;;5018608;28;20696;-63
2022/12/03 00:04:55;;;;;;;16.03;9.70;;;3.50;99.90;;;;;;5013999;28;20235;-64
2022/12/03 00:07:21;;;;;;;16.33;9.30;;;3.50;99.90;;;;;;5026991;28;20211;-65
2022/12/03 00:09:49;;;;;;;18.60;10.07;;;3.50;99.90;;;;;;5024893;28;20344;-65
2022/12/03 00:12:15;;;;;;;16.10;9.63;;;3.50;99.90;;;;;;4990137;28;20977;-67
2022/12/03 00:14:42;;;;;;;19.90;10.30;;;3.50;99.90;;;;;;5026621;28;20219;-64
2022/12/03 00:17:09;;;;;;;18.30;10.17;;;3.50;99.90;;;;;;5017518;28;20211;-64
2022/12/03 00:19:37;;;;;;;17.57;10.03;;;3.50;99.90;;;;;;5016023;28;20202;-63
2022/12/03 00:22:04;;;;;;;16.83;9.33;;;3.50;99.90;;;;;;5027867;28;20201;-64
2022/12/03 00:24:31;;;;;;;17.77;9.70;;;3.50;99.90;;;;;;5026138;28;20731;-64
2022/12/03 00:26:58;;;;;;;18.77;10.50;;;3.50;99.90;;;;;;4994769;28;20866;-64
2022/12/03 00:29:25;;;;;;;18.37;9.63;;;3.50;99.90;;;;;;5014652;28;20611;-63
2022/12/03 00:31:52;;;;;;;16.00;9.37;;;3.40;99.90;;;;;;5015327;28;20216;-64
2022/12/03 00:34:19;;;;;;;18.17;9.80;;;3.40;99.90;;;;;;5025534;28;20198;-63
2022/12/03 00:36:47;;;;;;;16.17;9.73;;;3.40;99.90;;;;;;5017510;28;20212;-64
2022/12/03 00:39:14;;;;;;;17.20;9.77;;;3.40;99.90;;;;;;5018653;28;20212;-64
2022/12/03 00:41:40;;;;;;;17.27;9.87;;;3.40;99.90;;;;;;4995073;28;20986;-63
2022/12/03 00:44:07;;;;;;;17.40;10.13;;;3.50;99.90;;;;;;5016709;28;20208;-64
2022/12/03 00:46:34;;;;;;;18.17;10.07;;;3.40;99.90;;;;;;5018422;28;20207;-64
2022/12/03 00:49:01;;;;;;;20.30;9.50;;;3.40;99.90;;;;;;5017174;28;20702;-64
2022/12/03 00:51:27;;;;;;;18.60;9.67;;;3.40;99.90;;;;;;5013106;28;20659;-63
2022/12/03 00:53:56;;;;;;;19.80;10.87;;;3.40;99.90;;;;;;5011126;28;20206;-63
2022/12/03 00:56:23;;;;;;;18.70;10.23;;;3.40;99.90;;;;;;5007459;28;20302;-64
2022/12/03 00:58:49;;;;;;;19.70;10.07;;;3.40;99.90;;;;;;5015751;28;20213;-63
2022/12/03 01:01:16;;;;;;;18.90;10.07;;;3.40;99.90;;;;;;4996176;28;20682;-63
2022/12/03 01:03:43;;;;;;;19.33;10.10;;;3.40;99.90;;;;;;5014396;28;20201;-64
2022/12/03 01:06:10;;;;;;;17.37;10.63;;;3.40;99.90;;;;;;5015245;28;20210;-64
2022/12/03 01:08:37;;;;;;;16.10;9.27;;;3.40;99.90;;;;;;4993761;28;20224;-64
2022/12/03 01:11:36;;;;;;;17.70;10.17;;;3.40;99.90;;;;;;5018518;28;20232;-64
2022/12/03 01:13:52;;;;;;;18.73;9.67;;;3.40;99.90;;;;;;4998561;28;20308;-64
2022/12/03 01:16:19;;;;;;;18.50;10.23;;;3.40;99.90;;;;;;5015567;28;20853;-63
2022/12/03 01:18:46;;;;;;;16.23;9.40;;;3.40;99.90;;;;;;5022842;28;20205;-64
2022/12/03 01:21:13;;;;;;;19.23;9.97;;;3.50;99.90;;;;;;5011249;28;20204;-64
2022/12/03 01:23:40;;;;;;;16.57;10.03;;;3.40;99.90;;;;;;5009492;28;20770;-64
2022/12/03 01:26:08;;;;;;;18.03;10.47;;;3.40;99.90;;;;;;5016849;28;20202;-63
2022/12/03 01:28:34;;;;;;;18.50;9.63;;;3.40;99.90;;;;;;4994374;28;20213;-64
2022/12/03 01:33:46;;;;;;;17.77;10.37;;;3.40;99.90;;;;;;5022849;28;20261;-64
2022/12/03 01:36:12;;;;;;;16.93;10.10;;;3.40;99.90;;;;;;5021819;28;20210;-63
2022/12/03 01:38:39;;;;;;;20.10;10.60;;;3.40;99.90;;;;;;5008514;28;20212;-64
2022/12/03 01:41:08;;;;;;;21.43;9.90;;;3.40;99.90;;;;;;5012715;28;20854;-63
2022/12/03 01:43:35;;;;;;;17.77;9.33;;;3.40;99.90;;;;;;5001258;28;20449;-63
2022/12/03 01:46:02;;;;;;;17.77;9.37;;;3.40;99.90;;;;;;5010736;28;20221;-64
2022/12/03 01:48:32;;;;;;;18.90;10.07;;;3.40;99.90;;;;;;5029357;28;20201;-64
2022/12/03 01:51:00;;;;;;;14.50;8.50;;;3.40;99.90;;;;;;5013506;28;20697;-64
2022/12/03 01:53:27;;;;;;;17.60;9.97;;;3.40;99.90;;;;;;5028877;28;20212;-63
2022/12/03 01:55:54;;;;;;;17.87;9.77;;;3.40;99.90;;;;;;5000040;28;20249;-64
2022/12/03 01:58:26;;;;;;;16.17;9.17;;;3.40;99.90;;;;;;4993022;28;20206;-63
2022/12/03 02:00:53;;;;;;;14.63;9.00;;;3.40;99.90;;;;;;5023737;28;20196;-64
2022/12/03 02:03:23;;;;;;;16.13;9.57;;;3.40;99.90;;;;;;5018538;28;20205;-63
2022/12/03 02:05:50;;;;;;;18.43;9.43;;;3.40;99.90;;;;;;5020679;28;20205;-64
2022/12/03 02:08:28;;;;;;;17.40;9.27;;;3.30;99.90;;;;;;5018313;28;20204;-64
2022/12/03 02:10:54;;;;;;;15.27;8.73;;;3.40;99.90;;;;;;5000396;28;20210;-63
2022/12/03 02:13:23;;;;;;;16.67;9.33;;;3.40;99.90;;;;;;5001421;28;20679;-64
2022/12/03 02:15:50;;;;;;;14.70;8.23;;;3.30;99.90;;;;;;5015750;28;20803;-64
2022/12/03 02:18:17;;;;;;;20.37;9.63;;;3.30;99.90;;;;;;5018701;28;20212;-64
2022/12/03 02:20:52;;;;;;;18.13;9.33;;;3.20;99.90;;;;;;5025644;28;20204;-63
2022/12/03 02:23:26;;;;;;;18.90;8.40;;;3.30;99.90;;;;;;5018602;28;20924;-63
2022/12/03 02:25:54;;;;;;;15.67;8.73;;;3.30;99.90;;;;;;5012637;28;20447;-63
2022/12/03 02:28:21;;;;;;;17.77;8.70;;;3.20;99.90;;;;;;5023568;28;20676;-63
2022/12/03 02:30:48;;;;;;;19.77;9.53;;;3.20;99.90;;;;;;4986818;28;20230;-64
2022/12/03 02:33:14;;;;;;;20.10;8.93;;;3.20;99.90;;;;;;5014423;28;20204;-63
2022/12/03 02:35:41;;;;;;;16.77;9.17;;;3.10;99.90;;;;;;5022025;28;20208;-63
2022/12/03 02:38:13;;;;;;;16.80;8.70;;;3.10;99.90;;;;;;5014282;28;20224;-63
2022/12/03 02:40:40;;;;;;;15.77;8.43;;;3.10;99.90;;;;;;5010403;28;20212;-63
2022/12/03 02:43:08;;;;;;;17.83;8.93;;;3.10;99.90;;;;;;5023350;28;20200;-63
2022/12/03 02:45:39;;;;;;;17.17;9.33;;;3.00;99.90;;;;;;4995858;28;20304;-63
2022/12/03 02:48:10;;;;;;;16.10;8.67;;;3.00;99.90;;;;;;5009203;28;20868;-64
2022/12/03 02:50:40;;;;;;;17.97;8.57;;;3.00;99.90;;;;;;5017996;28;20731;-63
2022/12/03 02:53:09;;;;;;;17.03;9.30;;;2.90;99.90;;;;;;5007174;28;20278;-63
2022/12/03 02:55:37;;;;;;;17.53;7.93;;;2.90;99.90;;;;;;5012888;28;20275;-63
2022/12/03 02:58:05;;;;;;;17.17;8.97;;;2.90;99.90;;;;;;5016570;28;20200;-63
2022/12/03 03:00:35;;;;;;;16.37;9.43;;;2.90;99.90;;;;;;5019193;28;20216;-64
2022/12/03 03:03:03;;;;;;;18.57;8.87;;;3.00;99.90;;;;;;4996879;28;20299;-63
2022/12/03 03:05:30;;;;;;;18.23;9.17;;;3.00;99.90;;;;;;5010435;28;20209;-64
2022/12/03 03:07:59;;;;;;;16.07;8.60;;;2.90;99.90;;;;;;5004912;28;20228;-63
2022/12/03 03:10:26;;;;;;;13.80;7.73;;;3.00;99.90;;;;;;5009835;28;20612;-63
2022/12/03 03:12:55;;;;;;;14.53;8.43;;;3.00;99.90;;;;;;5025248;28;20197;-63
2022/12/03 03:15:22;;;;;;;20.07;9.40;;;2.90;99.90;;;;;;5018067;28;20208;-63
2022/12/03 03:17:51;;;;;;;17.03;9.93;;;2.90;99.90;;;;;;5000506;28;20331;-63
2022/12/03 03:20:19;;;;;;;15.53;9.00;;;2.80;99.90;;;;;;5014948;28;20236;-63
2022/12/03 03:22:46;;;;;;;23.23;9.70;;;2.80;99.90;;;;;;5017557;28;20206;-63
2022/12/03 03:25:16;;;;;;;15.37;8.37;;;2.80;99.90;;;;;;5014473;28;20236;-63
2022/12/03 03:27:44;;;;;;;15.17;8.23;;;2.80;99.90;;;;;;5026474;28;20197;-63
2022/12/03 03:30:12;;;;;;;17.27;9.13;;;2.80;99.90;;;;;;5017059;28;20229;-63
2022/12/03 03:32:40;;;;;;;18.47;9.10;;;2.80;99.90;;;;;;5001757;28;20229;-63
2022/12/03 03:35:10;;;;;;;18.37;8.67;;;2.80;99.90;;;;;;5017703;28;20201;-64
2022/12/03 03:37:37;;;;;;;19.90;9.33;;;2.80;99.90;;;;;;5013529;28;20209;-64
2022/12/03 03:40:05;;;;;;;16.53;9.43;;;2.80;99.90;;;;;;5031875;28;20205;-63
2022/12/03 03:42:32;;;;;;;14.50;8.50;;;2.80;99.90;;;;;;5013034;28;20194;-63
2022/12/03 03:44:58;;;;;;;17.80;9.53;;;2.80;99.90;;;;;;5017700;28;20228;-63
2022/12/03 03:47:26;;;;;;;17.10;8.93;;;2.70;99.90;;;;;;5009892;28;20594;-64
2022/12/03 03:49:53;;;;;;;15.27;8.80;;;2.70;99.90;;;;;;5022348;28;20648;-63
2022/12/03 03:52:21;;;;;;;15.67;8.20;;;2.70;99.90;;;;;;5012501;28;20366;-64
2022/12/03 03:54:48;;;;;;;18.90;8.77;;;2.80;99.90;;;;;;5020293;28;20225;-64
2022/12/03 03:57:15;;;;;;;17.67;9.27;;;2.80;99.90;;;;;;5016312;28;20198;-64
2022/12/03 03:59:42;;;;;;;18.60;10.10;;;2.70;99.90;;;;;;5009252;28;21176;-65
2022/12/03 04:02:17;;;;;;;16.13;8.23;;;2.70;99.90;;;;;;5025694;28;20953;-64
2022/12/03 04:04:44;;;;;;;15.97;8.77;;;2.70;99.90;;;;;;4999453;28;20230;-64
2022/12/03 04:07:11;;;;;;;21.63;9.93;;;2.70;99.90;;;;;;5014822;28;20202;-64
2022/12/03 04:09:39;;;;;;;17.27;8.17;;;2.60;99.90;;;;;;5011083;28;20738;-64
2022/12/03 04:14:50;;;;;;;16.77;8.73;;;2.60;99.90;;;;;;5016951;28;20617;-63
2022/12/03 04:17:17;;;;;;;19.43;9.20;;;2.70;99.90;;;;;;5026286;28;20201;-64
2022/12/03 04:19:44;;;;;;;18.97;8.67;;;2.60;99.90;;;;;;4993953;28;21065;-63
2022/12/03 04:28:47;;;;;;;19.53;9.90;;;2.60;99.90;;;;;;5015038;28;20239;-63
2022/12/03 04:30:28;;;;;;;18.67;9.73;;;2.60;99.90;;;;;;5022818;28;20239;-63
2022/12/03 04:35:45;;;;;;;17.23;8.60;;;2.60;99.90;;;;;;4994850;28;20277;-63
2022/12/03 04:38:13;;;;;;;20.67;10.20;;;2.50;99.90;;;;;;5024158;28;20206;-63
2022/12/03 04:43:26;;;;;;;20.47;10.00;;;2.40;99.90;;;;;;5014191;28;20235;-63
2022/12/03 04:45:53;;;;;;;19.97;10.10;;;2.40;99.90;;;;;;5015167;28;20992;-63
2022/12/03 04:48:20;;;;;;;22.20;10.27;;;2.40;99.90;;;;;;5024767;28;20194;-63
2022/12/03 04:50:46;;;;;;;21.07;9.90;;;2.40;99.90;;;;;;4997862;28;20233;-63
2022/12/03 04:53:13;;;;;;;23.63;9.97;;;2.40;99.90;;;;;;5024908;28;20227;-63
2022/12/03 04:55:41;;;;;;;25.63;11.23;;;2.40;99.90;;;;;;5009840;28;20785;-63
2022/12/03 04:58:09;;;;;;;19.60;9.63;;;2.40;99.90;;;;;;5016695;28;20223;-63
2022/12/03 05:00:36;;;;;;;20.07;9.40;;;2.30;99.90;;;;;;5022926;28;20660;-63
2022/12/03 05:03:02;;;;;;;24.43;10.70;;;2.30;99.90;;;;;;5012389;28;20237;-63
2022/12/03 05:05:29;;;;;;;19.63;9.47;;;2.30;99.90;;;;;;4999167;28;20216;-63
2022/12/03 05:07:56;;;;;;;24.47;11.20;;;2.30;99.90;;;;;;5021546;28;20224;-63
2022/12/03 05:10:23;;;;;;;24.87;11.17;;;2.30;99.90;;;;;;5010476;28;20222;-63
2022/12/03 05:12:51;;;;;;;21.23;10.43;;;2.30;99.90;;;;;;5003683;28;22313;-63
2022/12/03 05:15:18;;;;;;;20.27;10.30;;;2.50;99.90;;;;;;5006148;28;20201;-63
2022/12/03 05:17:45;;;;;;;22.60;9.83;;;2.40;99.90;;;;;;5013904;28;20206;-63
2022/12/03 05:22:57;;;;;;;21.43;10.77;;;2.30;99.90;;;;;;5023868;28;20211;-63
2022/12/03 05:25:24;;;;;;;22.07;10.40;;;2.30;99.90;;;;;;5015385;28;21162;-63
2022/12/03 05:27:52;;;;;;;20.97;11.20;;;2.30;99.90;;;;;;5017453;28;20580;-64
2022/12/03 05:30:19;;;;;;;20.70;11.00;;;2.30;99.90;;;;;;5009649;28;20220;-63
2022/12/03 05:32:46;;;;;;;25.40;10.90;;;2.20;99.90;;;;;;5021377;28;20207;-63
2022/12/03 05:35:12;;;;;;;20.33;10.90;;;2.90;99.90;;;;;;5009741;28;20210;-63
2022/12/03 05:37:39;;;;;;;19.73;10.60;;;2.20;99.90;;;;;;4988517;28;20225;-63
2022/12/03 05:40:08;;;;;;;20.73;10.80;;;2.10;99.90;;;;;;4999873;28;20203;-64
2022/12/03 05:45:17;;;;;;;21.77;10.73;;;2.10;99.90;;;;;;5006500;28;20233;-63
2022/12/03 05:47:44;;;;;;;24.17;10.83;;;2.10;99.90;;;;;;5026404;28;20248;-63
2022/12/03 05:50:11;;;;;;;24.90;11.27;;;2.10;99.90;;;;;;5024288;28;20235;-63
2022/12/03 05:52:38;;;;;;;25.50;12.30;;;2.10;99.90;;;;;;4996497;28;20223;-63
2022/12/03 05:55:05;;;;;;;24.47;11.60;;;2.10;99.90;;;;;;5002168;28;20203;-63
2022/12/03 05:57:32;;;;;;;22.30;10.20;;;2.00;99.90;;;;;;5016330;28;20204;-64
2022/12/03 05:59:59;;;;;;;20.73;10.67;;;1.90;99.90;;;;;;5007472;28;20965;-63
2022/12/03 06:02:27;;;;;;;21.30;10.70;;;1.90;99.90;;;;;;5019408;28;20230;-63
2022/12/03 06:04:54;;;;;;;28.50;10.50;;;1.90;99.90;;;;;;5019677;28;20768;-64
2022/12/03 06:07:21;;;;;;;24.20;11.53;;;1.90;99.90;;;;;;4995699;28;20578;-62
2022/12/03 06:09:47;;;;;;;23.53;11.50;;;1.90;99.90;;;;;;5010282;28;20232;-63
2022/12/03 06:12:14;;;;;;;29.03;11.87;;;1.90;99.90;;;;;;5014355;28;20201;-63
2022/12/03 06:14:41;;;;;;;27.57;12.37;;;1.80;99.90;;;;;;4999487;28;20224;-63
2022/12/03 06:17:08;;;;;;;25.83;12.03;;;1.80;99.90;;;;;;5005234;28;20211;-64
2022/12/03 06:19:36;;;;;;;25.50;11.67;;;1.80;99.90;;;;;;5025599;28;20193;-63
2022/12/03 06:22:03;;;;;;;25.97;11.33;;;1.70;99.90;;;;;;4994744;28;20218;-63
2022/12/03 06:24:29;;;;;;;28.33;11.50;;;1.70;99.90;;;;;;5011888;28;20207;-63
2022/12/03 06:26:56;;;;;;;27.80;12.10;;;1.70;99.90;;;;;;5014468;28;20202;-63
2022/12/03 06:29:23;;;;;;;23.93;11.57;;;1.70;99.90;;;;;;4997340;28;20203;-63
2022/12/03 06:31:50;;;;;;;26.53;12.23;;;1.70;99.90;;;;;;5027520;28;20234;-63
2022/12/03 06:34:16;;;;;;;28.30;12.87;;;1.70;99.90;;;;;;5014859;28;20244;-63
2022/12/03 06:36:45;;;;;;;28.03;12.27;;;1.70;99.90;;;;;;4995332;28;21064;-63
2022/12/03 06:39:12;;;;;;;27.63;11.67;;;1.60;99.90;;;;;;5015898;28;20264;-63
2022/12/03 06:41:39;;;;;;;29.17;12.07;;;1.60;99.90;;;;;;5010395;28;20202;-63
2022/12/03 06:44:06;;;;;;;28.47;11.83;;;1.70;99.90;;;;;;5017611;28;20947;-63
2022/12/03 06:46:33;;;;;;;24.27;12.10;;;1.70;99.90;;;;;;5011390;28;20569;-63
2022/12/03 06:49:00;;;;;;;30.23;12.80;;;1.70;99.90;;;;;;5022545;28;20213;-63
2022/12/03 06:51:27;;;;;;;26.60;12.63;;;1.60;99.90;;;;;;5012048;28;20238;-64
2022/12/03 06:53:55;;;;;;;30.30;12.60;;;1.50;99.90;;;;;;4977918;28;20207;-63
2022/12/03 06:56:21;;;;;;;29.90;12.53;;;1.60;99.90;;;;;;5006707;28;20750;-63
2022/12/03 06:58:48;;;;;;;26.30;12.53;;;1.50;99.90;;;;;;5006231;28;20200;-63
2022/12/03 07:01:15;;;;;;;28.20;12.70;;;1.50;99.90;;;;;;5003836;28;20229;-62
2022/12/03 07:03:42;;;;;;;23.70;12.03;;;1.50;99.90;;;;;;5016482;28;20221;-63
2022/12/03 07:06:08;;;;;;;26.73;12.47;;;1.40;99.90;;;;;;5017781;28;20215;-63
2022/12/03 07:08:35;;;;;;;31.77;13.10;;;2.30;99.90;;;;;;4981154;28;20218;-63
2022/12/03 07:11:04;;;;;;;27.47;13.20;;;1.50;99.90;;;;;;5016556;28;20243;-62
2022/12/03 07:13:30;;;;;;;26.90;12.60;;;1.50;99.90;;;;;;5002184;28;20844;-62
2022/12/03 07:15:57;;;;;;;27.10;13.77;;;1.40;99.90;;;;;;5004714;28;20831;-63
2022/12/03 07:18:24;;;;;;;27.83;12.07;;;1.40;99.90;;;;;;5022064;28;20195;-63
2022/12/03 07:20:50;;;;;;;23.77;12.27;;;1.40;99.90;;;;;;5015468;28;20770;-62
2022/12/03 07:23:19;;;;;;;27.47;13.07;;;1.40;99.90;;;;;;5016249;28;20214;-63
2022/12/03 07:25:46;;;;;;;23.13;12.13;;;1.40;99.90;;;;;;4990491;28;22295;-64
2022/12/03 07:28:14;;;;;;;29.87;13.27;;;1.40;99.90;;;;;;5005810;28;20582;-63
2022/12/03 07:30:41;;;;;;;29.13;12.47;;;1.40;99.90;;;;;;5002264;28;20225;-64
2022/12/03 07:33:08;;;;;;;23.10;11.87;;;1.30;99.90;;;;;;5022616;28;20194;-64
2022/12/03 07:35:35;;;;;;;25.93;12.70;;;2.20;99.90;;;;;;5022574;28;20425;-64
2022/12/03 07:38:01;;;;;;;28.40;12.40;;;1.30;99.90;;;;;;5026079;28;20198;-64
2022/12/03 07:40:28;;;;;;;26.33;13.57;;;1.40;99.90;;;;;;4997278;28;20213;-64
2022/12/03 07:42:55;;;;;;;31.07;12.73;;;1.30;99.90;;;;;;5013730;28;20197;-64
2022/12/03 07:45:23;;;;;;;26.23;12.77;;;1.40;99.90;;;;;;5025989;28;20208;-63
2022/12/03 07:47:50;;;;;;;26.23;12.83;;;1.40;99.90;;;;;;5015900;28;20209;-64
2022/12/03 07:50:17;;;;;;;29.50;13.07;;;1.40;99.90;;;;;;5024890;28;20204;-64
2022/12/03 07:52:43;;;;;;;24.87;11.37;;;1.40;99.90;;;;;;5022059;28;20724;-63
2022/12/03 07:55:12;;;;;;;28.67;13.87;;;1.40;99.90;;;;;;4998900;28;21007;-64
2022/12/03 07:57:39;;;;;;;29.50;14.17;;;1.40;99.90;;;;;;5018405;28;20201;-64
2022/12/03 08:00:07;;;;;;;27.13;13.47;;;1.40;99.90;;;;;;5017068;28;20218;-65
2022/12/03 08:02:35;;;;;;;22.67;12.93;;;1.30;99.90;;;;;;5009456;28;20217;-64
2022/12/03 08:05:02;;;;;;;30.40;12.97;;;1.40;99.90;;;;;;5019481;28;21356;-64
2022/12/03 08:07:29;;;;;;;23.90;11.33;;;1.30;99.90;;;;;;4990831;28;20210;-64
2022/12/03 08:09:56;;;;;;;24.23;12.00;;;1.30;99.90;;;;;;5021761;28;20242;-63
2022/12/03 08:12:38;;;;;;;27.63;12.37;;;1.40;99.90;;;;;;4974124;28;20228;-64
2022/12/03 08:15:09;;;;;;;27.80;13.03;;;1.30;99.90;;;;;;5012712;28;21188;-64
2022/12/03 08:17:39;;;;;;;24.83;13.03;;;1.30;99.90;;;;;;4993245;28;21447;-64
2022/12/03 08:20:13;;;;;;;23.87;12.83;;;1.30;99.90;;;;;;5024579;28;20217;-63
2022/12/03 08:22:41;;;;;;;27.30;11.87;;;1.30;99.90;;;;;;5000853;28;20212;-64
2022/12/03 08:25:14;;;;;;;23.73;12.43;;;1.30;99.90;;;;;;5019669;28;20245;-63
2022/12/03 08:27:41;;;;;;;32.27;13.80;;;1.30;99.90;;;;;;4996190;28;20216;-63
2022/12/03 08:30:11;;;;;;;26.37;12.80;;;1.30;99.90;;;;;;5014964;28;20208;-63
2022/12/03 08:32:39;;;;;;;29.70;12.83;;;1.20;99.90;;;;;;5007801;28;20441;-63
2022/12/03 08:35:11;;;;;;;25.83;12.50;;;1.30;99.90;;;;;;5020895;28;20206;-62
2022/12/03 08:37:38;;;;;;;22.97;11.37;;;1.30;99.90;;;;;;4993483;28;20236;-63
2022/12/03 08:40:20;;;;;;;26.67;11.70;;;1.30;99.90;;;;;;5020586;28;20868;-62
2022/12/03 08:42:47;;;;;;;25.10;12.67;;;1.30;99.90;;;;;;4993987;28;20207;-63
2022/12/03 08:45:40;;;;;;;28.50;11.43;;;1.30;99.90;;;;;;5016090;28;20193;-63
2022/12/03 08:48:33;;;;;;;25.87;11.90;;;1.30;99.90;;;;;;4971245;28;21698;-63
2022/12/03 08:51:03;;;;;;;27.53;11.77;;;1.40;99.90;;;;;;4997330;28;20238;-63
2022/12/03 08:53:33;;;;;;;25.93;11.93;;;1.40;99.90;;;;;;4995234;28;20214;-64
2022/12/03 08:56:01;;;;;;;24.07;12.07;;;1.40;99.90;;;;;;5011817;28;20226;-63
2022/12/03 08:58:36;;;;;;;26.10;12.20;;;1.30;99.90;;;;;;4997761;28;20700;-63
2022/12/03 09:01:32;;;;;;;22.97;11.33;;;1.40;99.90;;;;;;5005069;28;21415;-64
2022/12/03 09:04:15;;;;;;;30.33;11.87;;;1.40;99.90;;;;;;4996330;28;20609;-63
2022/12/03 09:06:42;;;;;;;29.20;12.63;;;1.30;99.90;;;;;;4983875;28;20223;-64
2022/12/03 09:09:09;;;;;;;21.87;11.43;;;1.40;99.90;;;;;;4983278;28;21982;-64
2022/12/03 09:11:36;;;;;;;27.77;12.47;;;1.50;99.90;;;;;;4998652;28;22753;-63
2022/12/03 09:14:03;;;;;;;23.03;12.13;;;1.50;99.90;;;;;;4986840;28;20212;-64
2022/12/03 09:16:30;;;;;;;23.60;12.63;;;1.50;99.90;;;;;;5004162;28;20207;-64
2022/12/03 09:18:57;;;;;;;25.53;11.13;;;1.50;99.90;;;;;;5004274;28;20986;-64
2022/12/03 09:21:25;;;;;;;27.90;12.47;;;1.50;99.90;;;;;;5015669;28;20200;-63
2022/12/03 09:23:51;;;;;;;27.53;12.33;;;1.60;99.90;;;;;;4984976;28;20213;-64
2022/12/03 09:26:18;;;;;;;25.60;12.10;;;1.50;99.90;;;;;;5010732;28;20202;-63
2022/12/03 09:28:47;;;;;;;24.67;12.87;;;1.50;99.90;;;;;;4985931;28;20217;-64
2022/12/03 09:31:13;;;;;;;23.00;11.83;;;1.60;99.90;;;;;;4976178;28;20300;-64
2022/12/03 09:33:40;;;;;;;26.17;12.13;;;1.60;99.90;;;;;;5004733;28;21339;-64
2022/12/03 09:36:07;;;;;;;22.77;12.67;;;1.70;99.90;;;;;;4990269;28;20684;-64
2022/12/03 09:38:35;;;;;;;23.63;12.33;;;1.60;99.90;;;;;;4991097;28;20237;-63
2022/12/03 09:41:02;;;;;;;21.50;11.87;;;1.70;99.90;;;;;;4992724;28;20602;-64
2022/12/03 09:43:32;;;;;;;24.13;12.20;;;1.70;99.90;;;;;;5009448;28;20237;-64
2022/12/03 09:45:59;;;;;;;24.83;11.97;;;1.70;99.90;;;;;;4978775;28;20589;-64
2022/12/03 09:48:26;;;;;;;23.13;11.77;;;1.70;99.90;;;;;;5001171;28;20226;-63
2022/12/03 09:50:53;;;;;;;26.53;12.37;;;1.70;99.90;;;;;;4997957;28;20211;-63
2022/12/03 09:53:25;;;;;;;24.63;12.40;;;1.70;99.90;;;;;;4990137;28;20206;-63
2022/12/03 09:55:54;;;;;;;24.73;12.07;;;1.70;99.90;;;;;;5003645;28;20222;-64
2022/12/03 09:58:23;;;;;;;28.43;12.83;;;1.70;99.90;;;;;;5009220;28;20237;-64
2022/12/03 10:00:51;;;;;;;27.80;13.47;;;1.70;99.90;;;;;;4983976;28;20254;-63
2022/12/03 10:03:20;;;;;;;25.87;12.60;;;1.70;99.90;;;;;;5008860;28;20207;-63
2022/12/03 10:05:47;;;;;;;26.27;13.13;;;1.70;99.90;;;;;;5005743;28;20297;-63
2022/12/03 10:08:19;;;;;;;23.50;11.73;;;1.70;99.90;;;;;;4996399;28;20229;-63
2022/12/03 10:10:47;;;;;;;24.10;12.37;;;1.70;99.90;;;;;;4971904;28;20348;-63
2022/12/03 10:13:23;;;;;;;25.57;12.77;;;1.80;99.90;;;;;;4988507;28;20210;-63
2022/12/03 10:15:49;;;;;;;25.17;12.77;;;1.70;99.90;;;;;;4965983;28;20248;-63
2022/12/03 10:18:20;;;;;;;24.77;12.27;;;1.70;99.90;;;;;;4999798;28;20217;-63
2022/12/03 10:20:47;;;;;;;22.63;11.60;;;1.80;99.90;;;;;;4997266;28;20203;-64
2022/12/03 10:23:25;;;;;;;24.70;11.87;;;1.90;99.90;;;;;;5004010;28;20203;-63
2022/12/03 10:25:55;;;;;;;24.23;13.00;;;1.90;99.90;;;;;;4973185;28;20222;-63
2022/12/03 10:28:32;;;;;;;25.57;12.87;;;1.90;99.90;;;;;;5005637;28;20313;-63
2022/12/03 10:31:00;;;;;;;25.37;12.33;;;1.80;99.90;;;;;;4968748;28;20218;-63
2022/12/03 10:33:32;;;;;;;24.93;12.03;;;1.80;99.90;;;;;;5003348;28;20231;-63
2022/12/03 10:36:15;;;;;;;32.27;13.00;;;1.80;99.90;;;;;;5008301;28;20630;-63
2022/12/03 10:38:42;;;;;;;22.63;12.03;;;1.70;99.90;;;;;;4979236;28;20206;-64
2022/12/03 10:41:24;;;;;;;24.03;12.07;;;1.80;99.90;;;;;;4995742;28;20612;-63
2022/12/03 10:43:53;;;;;;;26.73;12.07;;;1.80;99.90;;;;;;5006593;28;20233;-62
2022/12/03 10:46:21;;;;;;;30.50;12.63;;;1.90;99.90;;;;;;4997675;22;20321;-64
2022/12/03 10:49:10;;;;;;;23.37;11.47;;;1.90;99.90;;;;;;5009688;28;21062;-64
2022/12/03 10:51:39;;;;;;;21.83;11.10;;;1.90;99.90;;;;;;5018811;28;20805;-63
2022/12/03 10:54:15;;;;;;;24.57;13.00;;;1.90;99.90;;;;;;5002168;28;20284;-63
2022/12/03 10:56:42;;;;;;;21.13;11.23;;;1.90;99.90;;;;;;5003982;28;20316;-63
2022/12/03 10:59:14;;;;;;;30.97;12.43;;;2.00;99.90;;;;;;5026691;28;20198;-63
2022/12/03 11:01:41;;;;;;;21.20;11.07;;;1.90;99.90;;;;;;4978193;28;20999;-63
2022/12/03 11:04:21;;;;;;;27.20;13.40;;;1.90;99.90;;;;;;5012148;28;20691;-63
2022/12/03 11:06:50;;;;;;;25.80;13.03;;;1.90;99.90;;;;;;5032537;28;20611;-64
2022/12/03 11:09:20;;;;;;;25.77;13.03;;;1.90;99.90;;;;;;5012098;28;20314;-64
2022/12/03 11:11:47;;;;;;;25.40;13.43;;;1.90;99.90;;;;;;5024184;28;20729;-62
2022/12/03 11:14:55;;;;;;;22.27;11.60;;;1.90;99.90;;;;;;5016342;28;20216;-63
2022/12/03 11:17:40;;;;;;;22.90;12.17;;;1.90;99.90;;;;;;4987532;28;21179;-63
2022/12/03 11:20:12;;;;;;;25.73;11.93;;;1.90;99.90;;;;;;5019716;28;21627;-63
2022/12/03 11:25:56;;;;;;;27.23;12.30;;;1.80;99.90;;;;;;5012047;22;21111;-63
2022/12/03 11:28:52;;;;;;;25.23;11.60;;;1.90;99.90;;;;;;4989350;28;24231;-63
2022/12/03 11:31:38;;;;;;;21.23;11.97;;;2.00;99.90;;;;;;5015802;28;20226;-63
2022/12/03 11:34:47;;;;;;;22.27;11.03;;;1.90;99.90;;;;;;4981617;28;20903;-63
2022/12/03 11:37:27;;;;;;;26.40;12.50;;;1.90;99.90;;;;;;5026556;28;20284;-62
2022/12/03 11:40:28;;;;;;;26.43;12.23;;;1.90;99.90;;;;;;5026377;28;20226;-62
2022/12/03 11:42:54;;;;;;;28.07;12.53;;;1.90;99.90;;;;;;4993371;28;20595;-63
2022/12/03 11:45:34;;;;;;;26.00;12.80;;;1.90;99.90;;;;;;5012610;28;20229;-62
2022/12/03 11:48:14;;;;;;;21.60;11.73;;;1.90;99.90;;;;;;4994755;28;20227;-63
2022/12/03 11:50:43;;;;;;;27.37;12.27;;;1.90;99.90;;;;;;5020436;28;20254;-62
2022/12/03 11:53:16;;;;;;;27.27;12.90;;;1.90;99.90;;;;;;5033912;28;20254;-62
2022/12/03 11:55:46;;;;;;;26.37;11.90;;;1.90;99.90;;;;;;5016439;28;20225;-62
2022/12/03 11:58:17;;;;;;;24.50;12.03;;;2.00;99.90;;;;;;5007827;28;20607;-63
2022/12/03 12:00:51;;;;;;;23.37;12.00;;;2.00;99.90;;;;;;5015945;28;20277;-62
2022/12/03 12:03:27;;;;;;;22.20;11.83;;;1.90;99.90;;;;;;4986943;28;27551;-63
2022/12/03 12:06:02;;;;;;;23.13;12.60;;;1.90;99.90;;;;;;5024001;28;20231;-62
2022/12/03 12:08:29;;;;;;;24.93;12.07;;;1.90;99.90;;;;;;5028057;28;20219;-62
2022/12/03 12:10:57;;;;;;;24.37;12.80;;;1.90;99.90;;;;;;5031355;28;20225;-64
2022/12/03 12:13:43;;;;;;;24.77;12.77;;;1.90;99.90;;;;;;5001520;28;20234;-62
2022/12/03 12:16:10;;;;;;;27.10;14.13;;;1.90;99.90;;;;;;5026977;28;20225;-63
2022/12/03 12:18:41;;;;;;;26.43;12.17;;;2.00;99.90;;;;;;4996945;28;20218;-63
2022/12/03 12:21:40;;;;;;;23.20;11.47;;;2.00;99.90;;;;;;5027382;28;20252;-63
2022/12/03 12:24:30;;;;;;;25.70;12.10;;;2.00;99.90;;;;;;5030151;28;20640;-62
2022/12/03 12:26:59;;;;;;;27.53;12.70;;;2.00;99.90;;;;;;5025621;28;20209;-62
2022/12/03 12:29:25;;;;;;;31.13;13.67;;;1.90;99.90;;;;;;5020049;28;21073;-63
2022/12/03 12:31:59;;;;;;;29.90;14.27;;;1.90;99.90;;;;;;5021985;28;20261;-62
2022/12/03 12:34:27;;;;;;;29.13;13.43;;;1.80;99.90;;;;;;4994065;28;20260;-62
2022/12/03 12:36:59;;;;;;;26.83;14.43;;;1.80;99.90;;;;;;5035571;28;20680;-62
2022/12/03 12:39:26;;;;;;;25.10;12.93;;;1.90;99.90;;;;;;5025085;28;20280;-62
2022/12/03 12:41:54;;;;;;;26.53;13.27;;;1.90;99.90;;;;;;5023489;28;20221;-62
2022/12/03 12:44:25;;;;;;;23.67;11.97;;;1.90;99.90;;;;;;5005511;28;20236;-62
2022/12/03 12:46:53;;;;;;;29.00;12.53;;;1.90;99.90;;;;;;5021434;28;20229;-62
2022/12/03 12:49:25;;;;;;;28.07;12.97;;;1.90;99.90;;;;;;4988293;28;20590;-63
2022/12/03 12:51:54;;;;;;;26.47;13.10;;;1.90;99.90;;;;;;5047039;28;20229;-63
2022/12/03 12:54:20;;;;;;;34.40;14.33;;;1.90;99.90;;;;;;5013985;28;20365;-62
2022/12/03 12:56:49;;;;;;;36.93;16.23;;;2.00;99.90;;;;;;5039701;28;20199;-63
2022/12/03 12:59:18;;;;;;;28.10;13.87;;;1.90;99.90;;;;;;5023048;28;20197;-62
2022/12/03 13:01:46;;;;;;;44.83;18.03;;;1.90;99.90;;;;;;5023549;28;20205;-62
2022/12/03 13:04:15;;;;;;;40.70;15.47;;;1.80;99.90;;;;;;5042987;28;20653;-62
2022/12/03 13:06:42;;;;;;;35.80;15.27;;;1.90;99.90;;;;;;5011186;28;20211;-62
2022/12/03 13:09:14;;;;;;;34.20;14.50;;;1.90;99.90;;;;;;5015653;28;20206;-62
2022/12/03 13:11:44;;;;;;;25.93;14.13;;;1.90;99.90;;;;;;5036698;28;20498;-63
2022/12/03 13:14:16;;;;;;;31.83;13.83;;;1.90;99.90;;;;;;5032399;28;20212;-62
2022/12/03 13:16:44;;;;;;;25.97;12.07;;;1.90;99.90;;;;;;5021871;28;20208;-62